메인 페이지
METAR-TAF:

METAR-TAF

공항 :

펜서콜라, 플로리다, 미국

위도: 30-21-22N, 경도: 087-19-24W, 고도: 9m

현재 날씨관측

예보는 3 시간 54분 전, 04:56시(UTC)에 발표되었습니다.
9kt
온도 23°C
습도 83%
기압 1015 hPa
시정: 16.1km
맑음

METAR: KNPA 100456Z AUTO 19009KT 10SM CLR 23/20 A2998 RMK AO2 SLP155 T02330200 PNO $

시각: 03:50 (08:50 UTC)

예보

예보 대상 시간: 10일 07시부터 11일 07시까지 (UTC)
9kt
시정 10km 이상
고도 2000ft 상공 구름 조금
고도 20000ft 상공 구름 보통
전환 중
10일 12시부터 10일 14시까지 (UTC)
서남서8kt
시정: 8000m
고도 2000ft 상공 구름 보통, 적란운.
고도 15000ft 상공 구름 많음
약한소나기, 시계 내 뇌우
일시적
10일 14시부터 10일 20시까지 (UTC)
여러 방향의 바람 20kt, 순간 최대 풍속 30kt
시정: 4800m
고도 2000ft 상공 구름 많음, 적란운.
고도 10000ft 상공 흐림
뇌우, 비
전환 중
10일 20시부터 10일 22시까지 (UTC)
서남서7kt
시정 10km 이상
고도 2000ft 상공 구름 보통
고도 10000ft 상공 구름 많음
시계 내 소나기
전환 중
10일 23시부터 11일 01시까지 (UTC)
여러 방향의 바람 5kt
시정: 1010m
고도 2000ft 상공 구름 조금
고도 10000ft 상공 구름 보통

TAF: KNPA 1007/1107 19009KT 9999 FEW020 SCT200 QNH2990INS BECMG 1012/1014 24008KT 8000 -SHRA VCTS SCT020CB BKN150 QNH2993INS TEMPO 1014/1020 VRB20G30KT 4800 TSRA BKN020CB OVC100 BECMG 1020/1022 25007KT 9999 VCSH SCT020 BKN100 QNH2991INS BECMG 1023/1101 VRB05KT 9999 NSW FEW020 SCT100 QNH2994INS AUTOMATED SENSOR METWATCH 1007 TIL 1010 T21/1011Z T24/1021Z FN00205

4,000개 이상의 공항 관측 자료 및 예보 (METAR 및 TAF 보고).

지도상에서 검색 가능한 기상관측소가 노란 점과 빨간 점으로 표시되어 있습니다.

기상관측소 명을 보려면 표시 위로 마우스를 이동하세요.

날씨 관측과 예보를 보려면 클릭하세요.

지도 변경 : 확대하려면 엑스 표시가 있는 녹색 버튼, 축소하려면 빼기 표시가 있는 녹색 버튼, 다음 페이지의 지도를 보려면 녹색 화살표를 클릭하세요.


METAR-TAF: